Aeroporto :
LOGIN :

Iscrizione | Disclaimer

   EN    FR    IT 

 










Sommario :    VFR   VFR Marginale   IFR   IFR Intensivo   IFR Molto Intensivo
Visibilità : 
Base nubi : 
>= 8 km
>= 3000ft
5 / 8 km
1000 / 3000 ft
1500m / 5 km
500 / 1000 ft
800 / 1500m
200 / 500 ft
< 800m
< 200 ft
Simboli :   Temporali  Nebbia  Neve Forte  Precipitazioni Forti  Vento > 20 kt
SIGMETs :   Varie  Temporali  Ghiacco  Turbolenza  Onda orograficha  Ceneri Vulcaniche






- Altitudine del aeroporto : 1071 ft
- Codice IATA : LWO


UKLL - L'viv

ULTIMO METAR :
  • 021230Z 35003MPS 9999 VCTS -SHRA SCT044CB BKN044 22/21 Q1012 R31/290055 TEMPO -TSRAGR BKN020CB

METARs OBSOLETI :
  • 021200Z 01003MPS 330V040 9999 VCTS SCT040CB BKN040 24/20 Q1012 R31/290055 TEMPO -TSRAGR BKN020CB
  • 021131Z 04004MPS 360V070 9999 VCTS SCT030CB BKN030 25/20 Q1012 R13/290055 TEMPO -TSRAGR BKN020CB
  • 021100Z 01003MPS 9999 -SHRA SCT049CB BKN049 23/20 Q1012 R13/290055 TEMPO -TSRAGR BKN020CB
  • 021030Z 01004MPS 9999 VCTS -SHRA SCT047CB BKN047 24/19 Q1013 R13/290055 TEMPO -TSRAGR BKN020CB
  • 021003Z 01004MPS 9999 VCTS SCT047CB BKN047 26/19 Q1012 R13/D TEMPO -TSRAGR BKN020CB
  • 021000Z 01004MPS 9999 SCT047CB BKN047 26/19 Q1012 R13/CLRD// TEMPO -TSRAGR BKN020CB

TAF TAF UKLL
Valido dal 02 a 12 ore il 03 a 12 ore UTC


021106Z 0212/0312 VRB01MPS 9999 BKN020
TEMPO 0212/0221 VRB09G14MPS 1400 TSRAGR BKN004 BKN025CB
BECMG 0221/0222 3000 BR BKN007
TEMPO 0222/0306 0400 -SHRA FG BKN002 BKN017CB
TEMPO 0306/0312 -SHRA BKN020CB



MetMap, La meteo Aeronautica in un colpo d'occhio ! - Copyright ORBIFLY Dicembre 2007 - Disclaimer

ORBIFLY MET'MAP TEAM :

Programmazione e sviluppo : Alexandra Zaïnal
Concezione : Baudouin d'Aumeries
Aiuto per la programmazione : Marc-Olivier Méhu
Supporto tecnico e logistico : Manuel Goepfert
Aiuto per la traduzione : Arnaldo La Scala

Contatto : metmap@orbifly.com




FONTI E CREDITI :

   NOAA